createdAt,value
2022-12-31T00:04:43.230Z,15.64
2022-12-31T00:33:56.759Z,16.08
2022-12-31T01:03:06.925Z,16.3
2022-12-31T01:32:04.998Z,16.39
2022-12-31T02:01:13.166Z,16.45
2022-12-31T02:30:17.010Z,16.57
2022-12-31T02:59:27.401Z,16.63
2022-12-31T03:28:35.275Z,16.46
2022-12-31T03:57:45.916Z,16.39
2022-12-31T04:26:55.041Z,16.3
2022-12-31T04:56:04.526Z,16.14
2022-12-31T05:25:13.010Z,16.15
2022-12-31T05:54:21.390Z,16.03
2022-12-31T06:23:33.504Z,16.06
2022-12-31T06:52:44.568Z,16.15
2022-12-31T07:21:53.156Z,16.16
2022-12-31T07:51:02.755Z,16.42
2022-12-31T08:20:14.664Z,16.72
2022-12-31T08:49:25.764Z,17.42
2022-12-31T09:18:42.493Z,18.24
2022-12-31T09:47:50.719Z,18.85
2022-12-31T10:16:54.918Z,19.74
2022-12-31T10:45:49.190Z,20.19
2022-12-31T11:14:53.292Z,20.68
2022-12-31T11:44:01.905Z,21.8
2022-12-31T12:13:05.561Z,21.75
2022-12-31T12:42:02.913Z,20.78
2022-12-31T13:11:00.746Z,20.38
2022-12-31T13:40:05.906Z,20.08
2022-12-31T14:09:08.106Z,19.63
2022-12-31T14:38:06.496Z,19.4
2022-12-31T15:07:26.985Z,19.05
2022-12-31T15:36:39.870Z,19
2022-12-31T16:05:10.630Z,19.21
2022-12-31T16:33:45.722Z,19.18
2022-12-31T17:02:48.836Z,18.97
2022-12-31T17:31:40.738Z,18.78
2022-12-31T18:00:34.208Z,18.64
2022-12-31T18:29:29.313Z,18.46
2022-12-31T18:58:25.976Z,18.37
2022-12-31T19:27:09.608Z,18.07
2022-12-31T19:56:03.438Z,17.5
2022-12-31T20:25:13.145Z,17.28
2022-12-31T20:54:10.860Z,16.67
2022-12-31T21:23:33.247Z,16.66
2022-12-31T21:51:58.721Z,16.6
2022-12-31T22:21:00.362Z,16.61
2022-12-31T22:50:10.729Z,16.51
2022-12-31T23:19:22.771Z,16.38
2022-12-31T23:48:30.571Z,16.58
